Weather at Los Roques Airport

Public forecast

Using degrees Celsius for public forecast. Weather courtesy of forecast.io.

Closest aviation weather report (METAR) to Los Roques Airport

Report is more than 6 hours old.

Closest report is La Orchila Airport, 30.1 nm (55.7 km) ESE. Retrieved 2020/09/07 20:02 UTC (3 months ago):

SVLO 072002Z AUTO 00000KT NCD 0/// Q////

Closest aviation forecast (TAF) to Los Roques Airport

Closest forecast is Simón Bolívar International Airport, 83.2 nm (154.0 km) SSW. Retrieved 2020/12/01 06:00 UTC (5 hours ago):

TAF SVMI 010400Z 0106/0206 09003KT 9999 SCT016 TX32/0118Z TN25/0107Z TEMPO 0106/0110 00000KT 9999 SCT016